sensor_id;sensor_type;location;lat;lon;timestamp;temperature;humidity
14409;DHT22;7289;50.706;4.992;2024-03-06T00:00:42;6.50;99.90
14409;DHT22;7289;50.706;4.992;2024-03-06T00:03:12;6.50;99.90
14409;DHT22;7289;50.706;4.992;2024-03-06T00:05:40;6.60;99.90
14409;DHT22;7289;50.706;4.992;2024-03-06T00:08:09;6.60;99.90
14409;DHT22;7289;50.706;4.992;2024-03-06T00:10:38;6.60;99.90
14409;DHT22;7289;50.706;4.992;2024-03-06T00:13:08;6.60;99.90
14409;DHT22;7289;50.706;4.992;2024-03-06T00:15:37;6.70;99.90
14409;DHT22;7289;50.706;4.992;2024-03-06T00:18:06;6.70;99.90
14409;DHT22;7289;50.706;4.992;2024-03-06T00:20:37;6.70;99.90
14409;DHT22;7289;50.706;4.992;2024-03-06T00:23:07;6.70;99.90
14409;DHT22;7289;50.706;4.992;2024-03-06T00:25:36;6.70;99.90
14409;DHT22;7289;50.706;4.992;2024-03-06T00:28:05;6.70;99.90
14409;DHT22;7289;50.706;4.992;2024-03-06T00:30:33;6.70;99.90
14409;DHT22;7289;50.706;4.992;2024-03-06T00:33:01;6.60;99.90
14409;DHT22;7289;50.706;4.992;2024-03-06T00:35:30;6.60;99.90
14409;DHT22;7289;50.706;4.992;2024-03-06T00:38:01;6.60;99.90
14409;DHT22;7289;50.706;4.992;2024-03-06T00:40:31;6.60;99.90
14409;DHT22;7289;50.706;4.992;2024-03-06T00:42:59;6.60;99.90
14409;DHT22;7289;50.706;4.992;2024-03-06T00:45:27;6.40;99.90
14409;DHT22;7289;50.706;4.992;2024-03-06T00:47:56;6.40;99.90
14409;DHT22;7289;50.706;4.992;2024-03-06T00:50:24;6.30;99.90
14409;DHT22;7289;50.706;4.992;2024-03-06T00:52:52;6.30;99.90
14409;DHT22;7289;50.706;4.992;2024-03-06T00:55:22;6.20;99.90
14409;DHT22;7289;50.706;4.992;2024-03-06T00:57:50;6.20;99.90
14409;DHT22;7289;50.706;4.992;2024-03-06T01:00:18;6.10;99.90
14409;DHT22;7289;50.706;4.992;2024-03-06T01:02:48;6.00;99.90
14409;DHT22;7289;50.706;4.992;2024-03-06T01:05:17;5.90;99.90
14409;DHT22;7289;50.706;4.992;2024-03-06T01:07:46;5.80;99.90
14409;DHT22;7289;50.706;4.992;2024-03-06T01:10:15;5.70;99.90
14409;DHT22;7289;50.706;4.992;2024-03-06T01:12:45;5.60;99.90
14409;DHT22;7289;50.706;4.992;2024-03-06T01:15:14;5.50;99.90
14409;DHT22;7289;50.706;4.992;2024-03-06T01:17:43;5.50;99.90
14409;DHT22;7289;50.706;4.992;2024-03-06T01:20:12;5.40;99.90
14409;DHT22;7289;50.706;4.992;2024-03-06T01:22:41;5.30;99.90
14409;DHT22;7289;50.706;4.992;2024-03-06T01:25:10;5.20;99.90
14409;DHT22;7289;50.706;4.992;2024-03-06T01:27:39;5.10;99.90
14409;DHT22;7289;50.706;4.992;2024-03-06T01:30:09;5.10;99.90
14409;DHT22;7289;50.706;4.992;2024-03-06T01:32:37;5.00;99.90
14409;DHT22;7289;50.706;4.992;2024-03-06T01:35:06;4.90;99.90
14409;DHT22;7289;50.706;4.992;2024-03-06T01:37:35;4.90;99.90
14409;DHT22;7289;50.706;4.992;2024-03-06T01:40:05;4.80;99.90
14409;DHT22;7289;50.706;4.992;2024-03-06T01:42:35;4.80;99.90
14409;DHT22;7289;50.706;4.992;2024-03-06T01:45:05;4.70;99.90
14409;DHT22;7289;50.706;4.992;2024-03-06T01:47:36;4.70;99.90
14409;DHT22;7289;50.706;4.992;2024-03-06T01:50:06;4.70;99.90
14409;DHT22;7289;50.706;4.992;2024-03-06T01:52:36;4.70;99.90
14409;DHT22;7289;50.706;4.992;2024-03-06T01:55:06;4.60;99.90
14409;DHT22;7289;50.706;4.992;2024-03-06T01:57:38;4.60;99.90
14409;DHT22;7289;50.706;4.992;2024-03-06T02:00:08;4.60;99.90
14409;DHT22;7289;50.706;4.992;2024-03-06T02:02:43;4.60;99.90
14409;DHT22;7289;50.706;4.992;2024-03-06T02:05:12;4.60;99.90
14409;DHT22;7289;50.706;4.992;2024-03-06T02:07:43;4.60;99.90
14409;DHT22;7289;50.706;4.992;2024-03-06T02:10:12;4.70;99.90
14409;DHT22;7289;50.706;4.992;2024-03-06T02:12:41;4.70;99.90
14409;DHT22;7289;50.706;4.992;2024-03-06T02:15:10;4.80;99.90
14409;DHT22;7289;50.706;4.992;2024-03-06T02:17:40;4.80;99.90
14409;DHT22;7289;50.706;4.992;2024-03-06T02:20:11;4.70;99.90
14409;DHT22;7289;50.706;4.992;2024-03-06T02:22:42;4.70;99.90
14409;DHT22;7289;50.706;4.992;2024-03-06T02:25:12;4.80;99.90
14409;DHT22;7289;50.706;4.992;2024-03-06T02:27:43;4.80;99.90
14409;DHT22;7289;50.706;4.992;2024-03-06T02:30:12;4.80;99.90
14409;DHT22;7289;50.706;4.992;2024-03-06T02:32:40;4.80;99.90
14409;DHT22;7289;50.706;4.992;2024-03-06T02:35:10;4.90;99.90
14409;DHT22;7289;50.706;4.992;2024-03-06T02:37:42;4.90;99.90
14409;DHT22;7289;50.706;4.992;2024-03-06T02:40:12;4.90;99.90
14409;DHT22;7289;50.706;4.992;2024-03-06T02:42:40;5.00;99.90
14409;DHT22;7289;50.706;4.992;2024-03-06T02:45:09;5.00;99.90
14409;DHT22;7289;50.706;4.992;2024-03-06T02:47:38;5.00;99.90
14409;DHT22;7289;50.706;4.992;2024-03-06T02:50:07;4.90;99.90
14409;DHT22;7289;50.706;4.992;2024-03-06T02:52:36;4.80;99.90
14409;DHT22;7289;50.706;4.992;2024-03-06T02:55:06;4.70;99.90
14409;DHT22;7289;50.706;4.992;2024-03-06T02:57:35;4.60;99.90
14409;DHT22;7289;50.706;4.992;2024-03-06T03:00:04;4.60;99.90
14409;DHT22;7289;50.706;4.992;2024-03-06T03:02:37;4.50;99.90
14409;DHT22;7289;50.706;4.992;2024-03-06T03:05:06;4.40;99.90
14409;DHT22;7289;50.706;4.992;2024-03-06T03:07:35;4.40;99.90
14409;DHT22;7289;50.706;4.992;2024-03-06T03:10:06;4.30;99.90
14409;DHT22;7289;50.706;4.992;2024-03-06T03:12:35;4.20;99.90
14409;DHT22;7289;50.706;4.992;2024-03-06T03:15:04;4.20;99.90
14409;DHT22;7289;50.706;4.992;2024-03-06T03:17:34;4.10;99.90
14409;DHT22;7289;50.706;4.992;2024-03-06T03:20:02;4.10;99.90
14409;DHT22;7289;50.706;4.992;2024-03-06T03:22:37;4.00;99.90
14409;DHT22;7289;50.706;4.992;2024-03-06T03:25:09;4.00;99.90
14409;DHT22;7289;50.706;4.992;2024-03-06T03:27:39;3.90;99.90
14409;DHT22;7289;50.706;4.992;2024-03-06T03:30:08;3.80;99.90
14409;DHT22;7289;50.706;4.992;2024-03-06T03:32:37;3.80;99.90
14409;DHT22;7289;50.706;4.992;2024-03-06T03:35:06;3.70;99.90
14409;DHT22;7289;50.706;4.992;2024-03-06T03:37:35;3.70;99.90
14409;DHT22;7289;50.706;4.992;2024-03-06T03:40:05;3.70;99.90
14409;DHT22;7289;50.706;4.992;2024-03-06T03:42:35;3.60;99.90
14409;DHT22;7289;50.706;4.992;2024-03-06T03:45:04;3.50;99.90
14409;DHT22;7289;50.706;4.992;2024-03-06T03:47:32;3.50;99.90
14409;DHT22;7289;50.706;4.992;2024-03-06T03:50:02;3.50;99.90
14409;DHT22;7289;50.706;4.992;2024-03-06T03:52:37;3.40;99.90
14409;DHT22;7289;50.706;4.992;2024-03-06T03:55:09;3.40;99.90
14409;DHT22;7289;50.706;4.992;2024-03-06T03:57:41;3.40;99.90
14409;DHT22;7289;50.706;4.992;2024-03-06T04:00:10;3.40;99.90
14409;DHT22;7289;50.706;4.992;2024-03-06T04:02:39;3.30;99.90
14409;DHT22;7289;50.706;4.992;2024-03-06T04:05:08;3.30;99.90
14409;DHT22;7289;50.706;4.992;2024-03-06T04:07:39;3.20;99.90
14409;DHT22;7289;50.706;4.992;2024-03-06T04:10:07;3.20;99.90
14409;DHT22;7289;50.706;4.992;2024-03-06T04:12:39;3.10;99.90
14409;DHT22;7289;50.706;4.992;2024-03-06T04:15:09;3.10;99.90
14409;DHT22;7289;50.706;4.992;2024-03-06T04:17:37;3.00;99.90
14409;DHT22;7289;50.706;4.992;2024-03-06T04:20:10;3.00;99.90
14409;DHT22;7289;50.706;4.992;2024-03-06T04:22:40;3.00;99.90
14409;DHT22;7289;50.706;4.992;2024-03-06T04:25:09;3.00;99.90
14409;DHT22;7289;50.706;4.992;2024-03-06T04:27:37;3.00;99.90
14409;DHT22;7289;50.706;4.992;2024-03-06T04:30:07;2.90;99.90
14409;DHT22;7289;50.706;4.992;2024-03-06T04:32:37;2.90;99.90
14409;DHT22;7289;50.706;4.992;2024-03-06T04:35:06;2.80;99.90
14409;DHT22;7289;50.706;4.992;2024-03-06T04:37:36;2.80;99.90
14409;DHT22;7289;50.706;4.992;2024-03-06T04:40:05;2.80;99.90
14409;DHT22;7289;50.706;4.992;2024-03-06T04:42:34;2.70;99.90
14409;DHT22;7289;50.706;4.992;2024-03-06T04:45:08;2.70;99.90
14409;DHT22;7289;50.706;4.992;2024-03-06T04:47:39;2.70;99.90
14409;DHT22;7289;50.706;4.992;2024-03-06T04:50:08;2.60;99.90
14409;DHT22;7289;50.706;4.992;2024-03-06T04:52:38;2.60;99.90
14409;DHT22;7289;50.706;4.992;2024-03-06T04:55:07;2.60;99.90
14409;DHT22;7289;50.706;4.992;2024-03-06T04:57:37;2.60;99.90
14409;DHT22;7289;50.706;4.992;2024-03-06T05:00:07;2.60;99.90
14409;DHT22;7289;50.706;4.992;2024-03-06T05:02:35;2.60;99.90
14409;DHT22;7289;50.706;4.992;2024-03-06T05:05:23;2.50;99.90
14409;DHT22;7289;50.706;4.992;2024-03-06T05:08:09;2.50;99.90
14409;DHT22;7289;50.706;4.992;2024-03-06T05:10:55;2.50;99.90
14409;DHT22;7289;50.706;4.992;2024-03-06T05:13:41;2.40;99.90
14409;DHT22;7289;50.706;4.992;2024-03-06T05:16:26;2.40;99.90
14409;DHT22;7289;50.706;4.992;2024-03-06T05:19:12;2.50;99.90
14409;DHT22;7289;50.706;4.992;2024-03-06T05:22:00;2.40;99.90
14409;DHT22;7289;50.706;4.992;2024-03-06T05:24:46;2.40;99.90
14409;DHT22;7289;50.706;4.992;2024-03-06T05:27:33;2.40;99.90
14409;DHT22;7289;50.706;4.992;2024-03-06T05:30:18;2.40;99.90
14409;DHT22;7289;50.706;4.992;2024-03-06T05:33:05;2.30;99.90
14409;DHT22;7289;50.706;4.992;2024-03-06T05:35:50;2.30;99.90
14409;DHT22;7289;50.706;4.992;2024-03-06T05:38:37;2.40;99.90
14409;DHT22;7289;50.706;4.992;2024-03-06T05:41:23;2.30;99.90
14409;DHT22;7289;50.706;4.992;2024-03-06T05:44:09;2.30;99.90
14409;DHT22;7289;50.706;4.992;2024-03-06T05:46:55;2.30;99.90
14409;DHT22;7289;50.706;4.992;2024-03-06T05:49:42;2.40;99.90
14409;DHT22;7289;50.706;4.992;2024-03-06T05:52:28;2.40;99.90
14409;DHT22;7289;50.706;4.992;2024-03-06T05:55:15;2.40;99.90
14409;DHT22;7289;50.706;4.992;2024-03-06T05:58:01;2.40;99.90
14409;DHT22;7289;50.706;4.992;2024-03-06T06:00:38;2.40;99.90
14409;DHT22;7289;50.706;4.992;2024-03-06T06:03:07;2.40;99.90
14409;DHT22;7289;50.706;4.992;2024-03-06T06:05:40;2.40;99.90
14409;DHT22;7289;50.706;4.992;2024-03-06T06:08:09;2.50;99.90
14409;DHT22;7289;50.706;4.992;2024-03-06T06:10:39;2.50;99.90
14409;DHT22;7289;50.706;4.992;2024-03-06T06:13:07;2.50;99.90
14409;DHT22;7289;50.706;4.992;2024-03-06T06:15:35;2.50;99.90
14409;DHT22;7289;50.706;4.992;2024-03-06T06:18:04;2.50;99.90
14409;DHT22;7289;50.706;4.992;2024-03-06T06:20:34;2.50;99.90
14409;DHT22;7289;50.706;4.992;2024-03-06T06:23:02;2.60;99.90
14409;DHT22;7289;50.706;4.992;2024-03-06T06:25:31;2.60;99.90
14409;DHT22;7289;50.706;4.992;2024-03-06T06:28:00;2.70;99.90
14409;DHT22;7289;50.706;4.992;2024-03-06T06:30:29;2.70;99.90
14409;DHT22;7289;50.706;4.992;2024-03-06T06:32:58;2.80;99.90
14409;DHT22;7289;50.706;4.992;2024-03-06T06:35:27;2.80;99.90
14409;DHT22;7289;50.706;4.992;2024-03-06T06:37:55;2.80;99.90
14409;DHT22;7289;50.706;4.992;2024-03-06T06:40:24;2.90;99.90
14409;DHT22;7289;50.706;4.992;2024-03-06T06:42:53;2.90;99.90
14409;DHT22;7289;50.706;4.992;2024-03-06T06:45:23;2.90;99.90
14409;DHT22;7289;50.706;4.992;2024-03-06T06:47:52;2.90;99.90
14409;DHT22;7289;50.706;4.992;2024-03-06T06:50:21;3.00;99.90
14409;DHT22;7289;50.706;4.992;2024-03-06T06:52:54;2.90;99.90
14409;DHT22;7289;50.706;4.992;2024-03-06T06:55:23;2.90;99.90
14409;DHT22;7289;50.706;4.992;2024-03-06T06:57:51;3.00;99.90
14409;DHT22;7289;50.706;4.992;2024-03-06T07:00:20;3.00;99.90
14409;DHT22;7289;50.706;4.992;2024-03-06T07:02:51;3.10;99.90
14409;DHT22;7289;50.706;4.992;2024-03-06T07:05:20;3.10;99.90
14409;DHT22;7289;50.706;4.992;2024-03-06T07:07:48;3.10;99.90
14409;DHT22;7289;50.706;4.992;2024-03-06T07:10:21;3.20;99.90
14409;DHT22;7289;50.706;4.992;2024-03-06T07:12:49;3.20;99.90
14409;DHT22;7289;50.706;4.992;2024-03-06T07:15:18;3.30;99.90
14409;DHT22;7289;50.706;4.992;2024-03-06T07:17:46;3.40;99.90
14409;DHT22;7289;50.706;4.992;2024-03-06T07:20:17;3.40;99.90
14409;DHT22;7289;50.706;4.992;2024-03-06T07:22:46;3.40;99.90
14409;DHT22;7289;50.706;4.992;2024-03-06T07:25:14;3.50;99.90
14409;DHT22;7289;50.706;4.992;2024-03-06T07:27:42;3.50;99.90
14409;DHT22;7289;50.706;4.992;2024-03-06T07:30:11;3.60;99.90
14409;DHT22;7289;50.706;4.992;2024-03-06T07:32:41;3.70;99.90
14409;DHT22;7289;50.706;4.992;2024-03-06T07:35:10;3.80;99.90
14409;DHT22;7289;50.706;4.992;2024-03-06T07:37:40;3.90;99.90
14409;DHT22;7289;50.706;4.992;2024-03-06T07:40:11;3.90;99.90
14409;DHT22;7289;50.706;4.992;2024-03-06T07:42:40;4.00;99.90
14409;DHT22;7289;50.706;4.992;2024-03-06T07:45:09;4.10;99.90
14409;DHT22;7289;50.706;4.992;2024-03-06T07:47:38;4.30;99.90
14409;DHT22;7289;50.706;4.992;2024-03-06T07:50:10;4.40;99.90
14409;DHT22;7289;50.706;4.992;2024-03-06T07:52:41;4.50;99.90
14409;DHT22;7289;50.706;4.992;2024-03-06T07:55:10;4.60;99.90
14409;DHT22;7289;50.706;4.992;2024-03-06T07:57:39;4.70;99.90
14409;DHT22;7289;50.706;4.992;2024-03-06T08:00:10;4.80;99.90
14409;DHT22;7289;50.706;4.992;2024-03-06T08:02:42;4.90;99.90
14409;DHT22;7289;50.706;4.992;2024-03-06T08:05:11;5.10;99.90
14409;DHT22;7289;50.706;4.992;2024-03-06T08:07:41;5.10;99.90
14409;DHT22;7289;50.706;4.992;2024-03-06T08:10:12;5.20;99.90
14409;DHT22;7289;50.706;4.992;2024-03-06T08:12:41;5.30;99.90
14409;DHT22;7289;50.706;4.992;2024-03-06T08:15:11;5.50;99.90
14409;DHT22;7289;50.706;4.992;2024-03-06T08:17:41;5.60;99.90
14409;DHT22;7289;50.706;4.992;2024-03-06T08:20:11;5.60;99.90
14409;DHT22;7289;50.706;4.992;2024-03-06T08:22:42;5.80;99.90
14409;DHT22;7289;50.706;4.992;2024-03-06T08:25:11;5.90;99.90
14409;DHT22;7289;50.706;4.992;2024-03-06T08:27:41;6.10;99.90
14409;DHT22;7289;50.706;4.992;2024-03-06T08:30:10;6.20;99.90
14409;DHT22;7289;50.706;4.992;2024-03-06T08:32:38;6.20;99.90
14409;DHT22;7289;50.706;4.992;2024-03-06T08:35:09;6.30;99.90
14409;DHT22;7289;50.706;4.992;2024-03-06T08:37:42;6.40;99.90
14409;DHT22;7289;50.706;4.992;2024-03-06T08:40:11;6.50;99.90
14409;DHT22;7289;50.706;4.992;2024-03-06T08:42:42;6.60;99.90
14409;DHT22;7289;50.706;4.992;2024-03-06T08:45:11;6.70;99.90
14409;DHT22;7289;50.706;4.992;2024-03-06T08:47:39;6.80;99.90
14409;DHT22;7289;50.706;4.992;2024-03-06T08:50:08;6.80;99.90
14409;DHT22;7289;50.706;4.992;2024-03-06T08:52:37;7.00;99.90
14409;DHT22;7289;50.706;4.992;2024-03-06T08:55:08;7.20;99.90
14409;DHT22;7289;50.706;4.992;2024-03-06T08:57:37;7.40;99.90
14409;DHT22;7289;50.706;4.992;2024-03-06T09:00:07;7.50;99.90
14409;DHT22;7289;50.706;4.992;2024-03-06T09:02:39;7.50;99.90
14409;DHT22;7289;50.706;4.992;2024-03-06T09:05:09;7.60;99.90
14409;DHT22;7289;50.706;4.992;2024-03-06T09:07:40;7.70;99.90
14409;DHT22;7289;50.706;4.992;2024-03-06T09:10:11;7.80;99.90
14409;DHT22;7289;50.706;4.992;2024-03-06T09:12:40;7.80;99.90
14409;DHT22;7289;50.706;4.992;2024-03-06T09:15:09;7.80;99.90
14409;DHT22;7289;50.706;4.992;2024-03-06T09:17:38;8.00;99.90
14409;DHT22;7289;50.706;4.992;2024-03-06T09:20:07;8.00;99.90
14409;DHT22;7289;50.706;4.992;2024-03-06T09:22:39;8.10;99.90
14409;DHT22;7289;50.706;4.992;2024-03-06T09:25:12;8.20;99.90
14409;DHT22;7289;50.706;4.992;2024-03-06T09:27:43;8.30;99.90
14409;DHT22;7289;50.706;4.992;2024-03-06T09:30:12;8.30;99.90
14409;DHT22;7289;50.706;4.992;2024-03-06T09:32:43;8.40;99.90
14409;DHT22;7289;50.706;4.992;2024-03-06T09:35:11;8.60;99.90
14409;DHT22;7289;50.706;4.992;2024-03-06T09:37:41;8.70;99.90
14409;DHT22;7289;50.706;4.992;2024-03-06T09:40:19;8.80;99.90
14409;DHT22;7289;50.706;4.992;2024-03-06T09:42:49;9.10;99.90
14409;DHT22;7289;50.706;4.992;2024-03-06T09:45:17;9.20;99.90
14409;DHT22;7289;50.706;4.992;2024-03-06T09:47:49;9.30;99.90
14409;DHT22;7289;50.706;4.992;2024-03-06T09:50:23;9.40;99.90
14409;DHT22;7289;50.706;4.992;2024-03-06T09:52:52;9.40;99.90
14409;DHT22;7289;50.706;4.992;2024-03-06T09:55:25;9.50;99.90
14409;DHT22;7289;50.706;4.992;2024-03-06T09:57:54;9.70;99.90
14409;DHT22;7289;50.706;4.992;2024-03-06T10:00:22;9.90;99.90
14409;DHT22;7289;50.706;4.992;2024-03-06T10:02:56;10.10;99.90
14409;DHT22;7289;50.706;4.992;2024-03-06T10:05:25;10.20;99.90
14409;DHT22;7289;50.706;4.992;2024-03-06T10:07:54;10.20;99.90
14409;DHT22;7289;50.706;4.992;2024-03-06T10:10:24;10.10;99.90
14409;DHT22;7289;50.706;4.992;2024-03-06T10:12:52;9.90;99.90
14409;DHT22;7289;50.706;4.992;2024-03-06T10:15:21;9.90;99.90
14409;DHT22;7289;50.706;4.992;2024-03-06T10:17:49;9.80;99.90
14409;DHT22;7289;50.706;4.992;2024-03-06T10:20:22;9.80;99.90
14409;DHT22;7289;50.706;4.992;2024-03-06T10:22:52;10.00;99.90
14409;DHT22;7289;50.706;4.992;2024-03-06T10:25:26;10.30;99.90
14409;DHT22;7289;50.706;4.992;2024-03-06T10:28:06;10.50;99.90
14409;DHT22;7289;50.706;4.992;2024-03-06T10:30:35;10.60;99.90
14409;DHT22;7289;50.706;4.992;2024-03-06T10:33:04;10.80;99.90
14409;DHT22;7289;50.706;4.992;2024-03-06T10:35:33;10.70;99.90
14409;DHT22;7289;50.706;4.992;2024-03-06T10:38:02;10.60;99.90
14409;DHT22;7289;50.706;4.992;2024-03-06T10:40:33;10.50;99.90
14409;DHT22;7289;50.706;4.992;2024-03-06T10:43:04;10.40;99.90
14409;DHT22;7289;50.706;4.992;2024-03-06T10:45:40;10.50;99.90
14409;DHT22;7289;50.706;4.992;2024-03-06T10:48:10;10.50;99.90
14409;DHT22;7289;50.706;4.992;2024-03-06T10:50:40;10.70;99.90
14409;DHT22;7289;50.706;4.992;2024-03-06T10:53:12;10.90;99.90
14409;DHT22;7289;50.706;4.992;2024-03-06T10:55:50;11.10;99.90
14409;DHT22;7289;50.706;4.992;2024-03-06T10:58:19;11.50;99.90
14409;DHT22;7289;50.706;4.992;2024-03-06T11:00:48;11.80;99.90
14409;DHT22;7289;50.706;4.992;2024-03-06T11:03:17;11.80;99.80
14409;DHT22;7289;50.706;4.992;2024-03-06T11:05:46;11.90;98.80
14409;DHT22;7289;50.706;4.992;2024-03-06T11:08:18;11.90;99.40
14409;DHT22;7289;50.706;4.992;2024-03-06T11:10:48;11.90;99.40
14409;DHT22;7289;50.706;4.992;2024-03-06T11:13:23;12.20;99.80
14409;DHT22;7289;50.706;4.992;2024-03-06T11:15:57;12.60;99.10
14409;DHT22;7289;50.706;4.992;2024-03-06T11:18:44;13.00;98.30
14409;DHT22;7289;50.706;4.992;2024-03-06T11:21:31;13.40;98.50
14409;DHT22;7289;50.706;4.992;2024-03-06T11:24:14;13.70;97.30
14409;DHT22;7289;50.706;4.992;2024-03-06T11:26:46;14.10;97.60
14409;DHT22;7289;50.706;4.992;2024-03-06T11:29:19;14.60;96.30
14409;DHT22;7289;50.706;4.992;2024-03-06T11:32:02;14.90;95.40
14409;DHT22;7289;50.706;4.992;2024-03-06T11:34:34;15.30;96.00
14409;DHT22;7289;50.706;4.992;2024-03-06T11:37:05;15.90;95.40
14409;DHT22;7289;50.706;4.992;2024-03-06T11:39:37;15.90;94.20
14409;DHT22;7289;50.706;4.992;2024-03-06T11:42:06;16.00;93.90
14409;DHT22;7289;50.706;4.992;2024-03-06T11:44:36;16.10;93.20
14409;DHT22;7289;50.706;4.992;2024-03-06T11:47:07;15.90;92.90
14409;DHT22;7289;50.706;4.992;2024-03-06T11:49:36;15.90;92.10
14409;DHT22;7289;50.706;4.992;2024-03-06T11:52:08;16.10;92.50
14409;DHT22;7289;50.706;4.992;2024-03-06T11:54:37;16.20;91.70
14409;DHT22;7289;50.706;4.992;2024-03-06T11:57:06;16.30;91.70
14409;DHT22;7289;50.706;4.992;2024-03-06T11:59:36;16.40;91.40
14409;DHT22;7289;50.706;4.992;2024-03-06T12:02:06;16.70;91.70
14409;DHT22;7289;50.706;4.992;2024-03-06T12:04:37;17.00;90.80
14409;DHT22;7289;50.706;4.992;2024-03-06T12:07:08;16.60;90.30
14409;DHT22;7289;50.706;4.992;2024-03-06T12:09:38;16.20;91.20
14409;DHT22;7289;50.706;4.992;2024-03-06T12:12:10;16.10;91.40
14409;DHT22;7289;50.706;4.992;2024-03-06T12:14:39;15.70;91.70
14409;DHT22;7289;50.706;4.992;2024-03-06T12:17:12;15.70;91.70
14409;DHT22;7289;50.706;4.992;2024-03-06T12:19:42;15.40;91.70
14409;DHT22;7289;50.706;4.992;2024-03-06T12:22:13;15.20;91.60
14409;DHT22;7289;50.706;4.992;2024-03-06T12:24:42;15.30;92.00
14409;DHT22;7289;50.706;4.992;2024-03-06T12:27:11;14.90;91.60
14409;DHT22;7289;50.706;4.992;2024-03-06T12:29:41;15.00;91.10
14409;DHT22;7289;50.706;4.992;2024-03-06T12:32:17;15.10;91.60
14409;DHT22;7289;50.706;4.992;2024-03-06T12:34:56;15.20;91.80
14409;DHT22;7289;50.706;4.992;2024-03-06T12:37:32;15.30;92.40
14409;DHT22;7289;50.706;4.992;2024-03-06T12:40:03;15.40;92.10
14409;DHT22;7289;50.706;4.992;2024-03-06T12:42:32;15.30;92.40
14409;DHT22;7289;50.706;4.992;2024-03-06T12:45:01;15.10;91.90
14409;DHT22;7289;50.706;4.992;2024-03-06T12:47:30;15.20;92.00
14409;DHT22;7289;50.706;4.992;2024-03-06T12:49:58;15.40;91.60
14409;DHT22;7289;50.706;4.992;2024-03-06T12:52:27;15.20;91.50
14409;DHT22;7289;50.706;4.992;2024-03-06T12:54:56;15.30;91.50
14409;DHT22;7289;50.706;4.992;2024-03-06T12:57:25;15.50;92.30
14409;DHT22;7289;50.706;4.992;2024-03-06T13:00:01;15.80;92.00
14409;DHT22;7289;50.706;4.992;2024-03-06T13:02:30;16.30;90.40
14409;DHT22;7289;50.706;4.992;2024-03-06T13:04:58;16.40;90.20
14409;DHT22;7289;50.706;4.992;2024-03-06T13:07:27;16.00;89.90
14409;DHT22;7289;50.706;4.992;2024-03-06T13:09:56;16.10;89.80
14409;DHT22;7289;50.706;4.992;2024-03-06T13:12:28;15.90;90.00
14409;DHT22;7289;50.706;4.992;2024-03-06T13:14:56;15.60;90.50
14409;DHT22;7289;50.706;4.992;2024-03-06T13:17:25;15.00;91.50
14409;DHT22;7289;50.706;4.992;2024-03-06T13:19:53;15.00;90.40
14409;DHT22;7289;50.706;4.992;2024-03-06T13:22:23;14.80;90.50
14409;DHT22;7289;50.706;4.992;2024-03-06T13:24:51;15.00;91.30
14409;DHT22;7289;50.706;4.992;2024-03-06T13:27:21;14.40;91.50
14409;DHT22;7289;50.706;4.992;2024-03-06T13:29:49;14.50;90.20
14409;DHT22;7289;50.706;4.992;2024-03-06T13:32:18;14.30;90.80
14409;DHT22;7289;50.706;4.992;2024-03-06T13:34:46;14.00;92.40
14409;DHT22;7289;50.706;4.992;2024-03-06T13:37:14;14.30;91.40
14409;DHT22;7289;50.706;4.992;2024-03-06T13:39:43;14.20;91.80
14409;DHT22;7289;50.706;4.992;2024-03-06T13:42:11;14.10;91.10
14409;DHT22;7289;50.706;4.992;2024-03-06T13:44:40;14.30;90.60
14409;DHT22;7289;50.706;4.992;2024-03-06T13:47:15;14.20;90.80
14409;DHT22;7289;50.706;4.992;2024-03-06T13:49:44;14.10;91.40
14409;DHT22;7289;50.706;4.992;2024-03-06T13:52:12;14.20;92.50
14409;DHT22;7289;50.706;4.992;2024-03-06T13:54:42;14.20;91.80
14409;DHT22;7289;50.706;4.992;2024-03-06T13:57:11;14.00;92.70
14409;DHT22;7289;50.706;4.992;2024-03-06T13:59:41;13.50;92.60
14409;DHT22;7289;50.706;4.992;2024-03-06T14:02:10;13.60;92.80
14409;DHT22;7289;50.706;4.992;2024-03-06T14:04:38;13.60;92.70
14409;DHT22;7289;50.706;4.992;2024-03-06T14:07:06;13.50;92.90
14409;DHT22;7289;50.706;4.992;2024-03-06T14:09:35;13.10;93.10
14409;DHT22;7289;50.706;4.992;2024-03-06T14:12:04;13.10;92.30
14409;DHT22;7289;50.706;4.992;2024-03-06T14:14:33;13.20;92.40
14409;DHT22;7289;50.706;4.992;2024-03-06T14:17:03;13.30;93.00
14409;DHT22;7289;50.706;4.992;2024-03-06T14:19:32;13.30;92.40
14409;DHT22;7289;50.706;4.992;2024-03-06T14:22:00;13.20;92.20
14409;DHT22;7289;50.706;4.992;2024-03-06T14:24:32;13.00;92.30
14409;DHT22;7289;50.706;4.992;2024-03-06T14:27:00;13.00;92.90
14409;DHT22;7289;50.706;4.992;2024-03-06T14:29:28;13.00;92.70
14409;DHT22;7289;50.706;4.992;2024-03-06T14:31:57;13.00;92.90
14409;DHT22;7289;50.706;4.992;2024-03-06T14:34:26;13.10;92.80
14409;DHT22;7289;50.706;4.992;2024-03-06T14:36:55;13.10;92.60
14409;DHT22;7289;50.706;4.992;2024-03-06T14:39:23;13.00;92.00
14409;DHT22;7289;50.706;4.992;2024-03-06T14:41:53;13.10;91.10
14409;DHT22;7289;50.706;4.992;2024-03-06T14:44:21;13.00;91.30
14409;DHT22;7289;50.706;4.992;2024-03-06T14:46:50;12.80;91.60
14409;DHT22;7289;50.706;4.992;2024-03-06T14:49:19;12.80;91.30
14409;DHT22;7289;50.706;4.992;2024-03-06T14:51:49;12.80;91.10
14409;DHT22;7289;50.706;4.992;2024-03-06T14:54:17;12.90;91.30
14409;DHT22;7289;50.706;4.992;2024-03-06T14:56:45;13.00;91.90
14409;DHT22;7289;50.706;4.992;2024-03-06T14:59:14;13.00;91.10
14409;DHT22;7289;50.706;4.992;2024-03-06T15:01:42;13.00;90.50
14409;DHT22;7289;50.706;4.992;2024-03-06T15:04:11;13.00;91.00
14409;DHT22;7289;50.706;4.992;2024-03-06T15:06:40;13.00;90.90
14409;DHT22;7289;50.706;4.992;2024-03-06T15:09:09;13.00;91.70
14409;DHT22;7289;50.706;4.992;2024-03-06T15:11:40;13.10;92.40
14409;DHT22;7289;50.706;4.992;2024-03-06T15:14:08;13.20;91.20
14409;DHT22;7289;50.706;4.992;2024-03-06T15:16:37;13.30;91.90
14409;DHT22;7289;50.706;4.992;2024-03-06T15:19:07;13.30;90.90
14409;DHT22;7289;50.706;4.992;2024-03-06T15:21:35;13.30;90.80
14409;DHT22;7289;50.706;4.992;2024-03-06T15:24:04;13.20;90.10
14409;DHT22;7289;50.706;4.992;2024-03-06T15:26:34;13.10;91.30
14409;DHT22;7289;50.706;4.992;2024-03-06T15:29:04;13.20;90.20
14409;DHT22;7289;50.706;4.992;2024-03-06T15:31:33;13.10;90.70
14409;DHT22;7289;50.706;4.992;2024-03-06T15:34:02;12.80;90.60
14409;DHT22;7289;50.706;4.992;2024-03-06T15:36:30;12.70;90.60
14409;DHT22;7289;50.706;4.992;2024-03-06T15:38:59;12.40;90.90
14409;DHT22;7289;50.706;4.992;2024-03-06T15:41:27;12.20;91.20
14409;DHT22;7289;50.706;4.992;2024-03-06T15:43:57;12.20;91.20
14409;DHT22;7289;50.706;4.992;2024-03-06T15:46:26;12.10;91.10
14409;DHT22;7289;50.706;4.992;2024-03-06T15:48:54;12.30;92.20
14409;DHT22;7289;50.706;4.992;2024-03-06T15:51:22;12.40;90.80
14409;DHT22;7289;50.706;4.992;2024-03-06T15:53:52;12.60;91.20
14409;DHT22;7289;50.706;4.992;2024-03-06T15:56:20;12.70;91.90
14409;DHT22;7289;50.706;4.992;2024-03-06T15:58:49;12.80;92.20
14409;DHT22;7289;50.706;4.992;2024-03-06T16:01:19;12.80;92.70
14409;DHT22;7289;50.706;4.992;2024-03-06T16:03:47;12.80;93.10
14409;DHT22;7289;50.706;4.992;2024-03-06T16:06:19;12.80;92.50
14409;DHT22;7289;50.706;4.992;2024-03-06T16:08:56;12.70;92.80
14409;DHT22;7289;50.706;4.992;2024-03-06T16:11:25;12.70;92.70
14409;DHT22;7289;50.706;4.992;2024-03-06T16:13:55;12.60;93.60
14409;DHT22;7289;50.706;4.992;2024-03-06T16:16:27;12.60;93.60